Terminal Aerodrome Forecast
Issued by NWS Bismarck, ND

Home | Current Version | Previous Version | Text Only | Print | Product List | Glossary Off
Versions: 1 2 3 4 5 6 7 8 9 10 11 12 13 14 15 16

299
FTUS43 KBIS 051129
TAFISN
TAF
KISN 051129Z 0512/0612 28004KT P6SM BKN080
     FM051500 23005KT P6SM SCT090
     FM051800 24009KT P6SM SCT200
     FM061000 24008KT P6SM SCT250 WS010/25025KT=

USA.gov is the U.S. government's official web portal to all federal, state and local government web resources and services.